sensor_id;sensor_type;location;lat;lon;timestamp;P1;durP1;ratioP1;P2;durP2;ratioP2
21814;SDS011;11069;48.988;8.450;2023-09-19T00:01:06;2.22;;;1.85;;
21814;SDS011;11069;48.988;8.450;2023-09-19T00:03:37;2.83;;;1.80;;
21814;SDS011;11069;48.988;8.450;2023-09-19T00:06:04;4.38;;;1.50;;
21814;SDS011;11069;48.988;8.450;2023-09-19T00:08:30;4.28;;;1.50;;
21814;SDS011;11069;48.988;8.450;2023-09-19T00:10:58;2.75;;;1.50;;
21814;SDS011;11069;48.988;8.450;2023-09-19T00:13:34;2.47;;;1.55;;
21814;SDS011;11069;48.988;8.450;2023-09-19T00:16:01;3.55;;;1.55;;
21814;SDS011;11069;48.988;8.450;2023-09-19T00:18:32;2.97;;;1.55;;
21814;SDS011;11069;48.988;8.450;2023-09-19T00:21:00;3.83;;;1.75;;
21814;SDS011;11069;48.988;8.450;2023-09-19T00:23:25;1.58;;;1.48;;
21814;SDS011;11069;48.988;8.450;2023-09-19T00:25:52;2.50;;;1.40;;
21814;SDS011;11069;48.988;8.450;2023-09-19T00:28:22;2.20;;;1.60;;
21814;SDS011;11069;48.988;8.450;2023-09-19T00:30:51;3.72;;;1.50;;
21814;SDS011;11069;48.988;8.450;2023-09-19T00:33:19;2.75;;;1.60;;
21814;SDS011;11069;48.988;8.450;2023-09-19T00:35:49;2.45;;;1.35;;
21814;SDS011;11069;48.988;8.450;2023-09-19T00:38:15;2.50;;;1.60;;
21814;SDS011;11069;48.988;8.450;2023-09-19T00:40:45;2.10;;;1.40;;
21814;SDS011;11069;48.988;8.450;2023-09-19T00:43:11;1.65;;;1.30;;
21814;SDS011;11069;48.988;8.450;2023-09-19T00:45:37;2.72;;;1.40;;
21814;SDS011;11069;48.988;8.450;2023-09-19T00:48:04;1.15;;;1.08;;
21814;SDS011;11069;48.988;8.450;2023-09-19T00:50:34;1.90;;;1.45;;
21814;SDS011;11069;48.988;8.450;2023-09-19T00:53:07;3.78;;;1.55;;
21814;SDS011;11069;48.988;8.450;2023-09-19T00:55:37;1.60;;;1.25;;
21814;SDS011;11069;48.988;8.450;2023-09-19T00:58:04;6.70;;;1.75;;
21814;SDS011;11069;48.988;8.450;2023-09-19T01:00:34;1.63;;;1.35;;
21814;SDS011;11069;48.988;8.450;2023-09-19T01:03:01;3.42;;;1.35;;
21814;SDS011;11069;48.988;8.450;2023-09-19T01:05:27;1.17;;;1.08;;
21814;SDS011;11069;48.988;8.450;2023-09-19T01:07:56;3.03;;;1.10;;
21814;SDS011;11069;48.988;8.450;2023-09-19T01:10:31;2.50;;;1.33;;
21814;SDS011;11069;48.988;8.450;2023-09-19T01:13:21;3.20;;;1.40;;
21814;SDS011;11069;48.988;8.450;2023-09-19T01:16:03;5.32;;;1.98;;
21814;SDS011;11069;48.988;8.450;2023-09-19T01:18:46;3.50;;;1.50;;
21814;SDS011;11069;48.988;8.450;2023-09-19T01:21:37;1.60;;;1.40;;
21814;SDS011;11069;48.988;8.450;2023-09-19T01:24:33;3.08;;;1.17;;
21814;SDS011;11069;48.988;8.450;2023-09-19T01:28:04;1.60;;;1.35;;
21814;SDS011;11069;48.988;8.450;2023-09-19T01:30:26;1.60;;;1.20;;
21814;SDS011;11069;48.988;8.450;2023-09-19T01:32:57;1.20;;;1.10;;
21814;SDS011;11069;48.988;8.450;2023-09-19T01:35:24;3.17;;;1.10;;
21814;SDS011;11069;48.988;8.450;2023-09-19T01:37:50;2.67;;;1.10;;
21814;SDS011;11069;48.988;8.450;2023-09-19T01:40:16;1.20;;;1.10;;
21814;SDS011;11069;48.988;8.450;2023-09-19T01:45:27;1.70;;;1.00;;
21814;SDS011;11069;48.988;8.450;2023-09-19T01:51:34;2.08;;;1.00;;
21814;SDS011;11069;48.988;8.450;2023-09-19T01:54:18;2.80;;;1.10;;
21814;SDS011;11069;48.988;8.450;2023-09-19T01:56:57;2.35;;;1.10;;
21814;SDS011;11069;48.988;8.450;2023-09-19T01:59:37;2.50;;;1.52;;
21814;SDS011;11069;48.988;8.450;2023-09-19T02:02:10;3.58;;;0.98;;
21814;SDS011;11069;48.988;8.450;2023-09-19T02:04:37;1.98;;;1.27;;
21814;SDS011;11069;48.988;8.450;2023-09-19T02:07:03;2.15;;;1.33;;
21814;SDS011;11069;48.988;8.450;2023-09-19T02:09:30;1.63;;;1.05;;
21814;SDS011;11069;48.988;8.450;2023-09-19T02:12:00;5.82;;;1.60;;
21814;SDS011;11069;48.988;8.450;2023-09-19T02:14:26;1.50;;;1.00;;
21814;SDS011;11069;48.988;8.450;2023-09-19T02:16:52;2.28;;;1.15;;
21814;SDS011;11069;48.988;8.450;2023-09-19T02:19:18;1.20;;;1.10;;
21814;SDS011;11069;48.988;8.450;2023-09-19T02:21:46;2.05;;;1.45;;
21814;SDS011;11069;48.988;8.450;2023-09-19T02:24:13;2.47;;;1.23;;
21814;SDS011;11069;48.988;8.450;2023-09-19T02:26:40;1.75;;;1.10;;
21814;SDS011;11069;48.988;8.450;2023-09-19T02:29:06;1.23;;;1.13;;
21814;SDS011;11069;48.988;8.450;2023-09-19T02:31:31;1.80;;;0.98;;
21814;SDS011;11069;48.988;8.450;2023-09-19T02:33:57;3.75;;;1.80;;
21814;SDS011;11069;48.988;8.450;2023-09-19T02:36:25;2.13;;;1.05;;
21814;SDS011;11069;48.988;8.450;2023-09-19T02:38:51;2.50;;;1.30;;
21814;SDS011;11069;48.988;8.450;2023-09-19T02:41:16;2.63;;;1.20;;
21814;SDS011;11069;48.988;8.450;2023-09-19T02:43:42;1.42;;;1.10;;
21814;SDS011;11069;48.988;8.450;2023-09-19T02:46:08;1.40;;;1.20;;
21814;SDS011;11069;48.988;8.450;2023-09-19T02:48:36;2.33;;;1.33;;
21814;SDS011;11069;48.988;8.450;2023-09-19T02:51:02;1.83;;;1.10;;
21814;SDS011;11069;48.988;8.450;2023-09-19T02:53:30;3.08;;;1.30;;
21814;SDS011;11069;48.988;8.450;2023-09-19T02:55:57;3.75;;;1.40;;
21814;SDS011;11069;48.988;8.450;2023-09-19T02:58:24;2.58;;;1.15;;
21814;SDS011;11069;48.988;8.450;2023-09-19T03:00:50;1.60;;;1.25;;
21814;SDS011;11069;48.988;8.450;2023-09-19T03:03:16;3.78;;;1.40;;
21814;SDS011;11069;48.988;8.450;2023-09-19T03:05:42;2.90;;;1.38;;
21814;SDS011;11069;48.988;8.450;2023-09-19T03:08:12;2.60;;;1.50;;
21814;SDS011;11069;48.988;8.450;2023-09-19T03:10:41;2.38;;;1.50;;
21814;SDS011;11069;48.988;8.450;2023-09-19T03:13:07;1.38;;;1.27;;
21814;SDS011;11069;48.988;8.450;2023-09-19T03:15:35;2.17;;;1.38;;
21814;SDS011;11069;48.988;8.450;2023-09-19T03:18:04;1.85;;;1.40;;
21814;SDS011;11069;48.988;8.450;2023-09-19T03:20:30;2.08;;;1.40;;
21814;SDS011;11069;48.988;8.450;2023-09-19T03:22:55;2.17;;;1.50;;
21814;SDS011;11069;48.988;8.450;2023-09-19T03:25:22;4.18;;;1.40;;
21814;SDS011;11069;48.988;8.450;2023-09-19T03:27:48;3.75;;;1.45;;
21814;SDS011;11069;48.988;8.450;2023-09-19T03:30:13;2.28;;;1.30;;
21814;SDS011;11069;48.988;8.450;2023-09-19T03:32:48;4.43;;;1.60;;
21814;SDS011;11069;48.988;8.450;2023-09-19T03:35:15;1.95;;;1.35;;
21814;SDS011;11069;48.988;8.450;2023-09-19T03:37:41;4.28;;;1.77;;
21814;SDS011;11069;48.988;8.450;2023-09-19T03:40:10;2.65;;;1.67;;
21814;SDS011;11069;48.988;8.450;2023-09-19T03:42:39;3.30;;;1.90;;
21814;SDS011;11069;48.988;8.450;2023-09-19T03:45:07;3.58;;;1.80;;
21814;SDS011;11069;48.988;8.450;2023-09-19T03:47:37;4.47;;;1.80;;
21814;SDS011;11069;48.988;8.450;2023-09-19T03:50:04;2.90;;;1.88;;
21814;SDS011;11069;48.988;8.450;2023-09-19T03:52:31;2.85;;;1.80;;
21814;SDS011;11069;48.988;8.450;2023-09-19T03:54:57;4.43;;;1.92;;
21814;SDS011;11069;48.988;8.450;2023-09-19T03:57:22;1.98;;;1.70;;
21814;SDS011;11069;48.988;8.450;2023-09-19T03:59:48;1.88;;;1.73;;
21814;SDS011;11069;48.988;8.450;2023-09-19T04:02:14;3.17;;;1.67;;
21814;SDS011;11069;48.988;8.450;2023-09-19T04:04:50;3.60;;;1.88;;
21814;SDS011;11069;48.988;8.450;2023-09-19T04:07:17;2.42;;;1.80;;
21814;SDS011;11069;48.988;8.450;2023-09-19T04:09:44;3.00;;;1.83;;
21814;SDS011;11069;48.988;8.450;2023-09-19T04:12:10;5.03;;;1.65;;
21814;SDS011;11069;48.988;8.450;2023-09-19T04:14:37;2.40;;;1.73;;
21814;SDS011;11069;48.988;8.450;2023-09-19T04:17:03;3.10;;;1.95;;
21814;SDS011;11069;48.988;8.450;2023-09-19T04:19:30;2.97;;;1.90;;
21814;SDS011;11069;48.988;8.450;2023-09-19T04:21:56;3.70;;;1.90;;
21814;SDS011;11069;48.988;8.450;2023-09-19T04:24:21;2.17;;;1.58;;
21814;SDS011;11069;48.988;8.450;2023-09-19T04:26:47;4.25;;;1.75;;
21814;SDS011;11069;48.988;8.450;2023-09-19T04:29:13;4.78;;;1.88;;
21814;SDS011;11069;48.988;8.450;2023-09-19T04:31:38;3.80;;;1.77;;
21814;SDS011;11069;48.988;8.450;2023-09-19T04:34:05;8.13;;;1.92;;
21814;SDS011;11069;48.988;8.450;2023-09-19T04:36:35;3.87;;;1.90;;
21814;SDS011;11069;48.988;8.450;2023-09-19T04:39:01;2.60;;;1.83;;
21814;SDS011;11069;48.988;8.450;2023-09-19T04:41:30;5.05;;;2.42;;
21814;SDS011;11069;48.988;8.450;2023-09-19T04:43:55;6.25;;;2.17;;
21814;SDS011;11069;48.988;8.450;2023-09-19T04:46:21;3.60;;;2.35;;
21814;SDS011;11069;48.988;8.450;2023-09-19T04:48:47;3.28;;;2.22;;
21814;SDS011;11069;48.988;8.450;2023-09-19T04:51:13;3.25;;;1.95;;
21814;SDS011;11069;48.988;8.450;2023-09-19T04:53:40;3.97;;;2.10;;
21814;SDS011;11069;48.988;8.450;2023-09-19T04:56:06;3.70;;;2.50;;
21814;SDS011;11069;48.988;8.450;2023-09-19T04:58:33;3.53;;;2.17;;
21814;SDS011;11069;48.988;8.450;2023-09-19T05:00:59;4.88;;;2.50;;
21814;SDS011;11069;48.988;8.450;2023-09-19T05:03:24;5.65;;;2.38;;
21814;SDS011;11069;48.988;8.450;2023-09-19T05:05:50;4.30;;;2.00;;
21814;SDS011;11069;48.988;8.450;2023-09-19T05:08:16;3.45;;;1.90;;
21814;SDS011;11069;48.988;8.450;2023-09-19T05:10:41;5.07;;;2.35;;
21814;SDS011;11069;48.988;8.450;2023-09-19T05:13:07;2.97;;;2.10;;
21814;SDS011;11069;48.988;8.450;2023-09-19T05:15:33;4.45;;;2.28;;
21814;SDS011;11069;48.988;8.450;2023-09-19T05:18:00;6.40;;;2.28;;
21814;SDS011;11069;48.988;8.450;2023-09-19T05:20:26;3.08;;;2.50;;
21814;SDS011;11069;48.988;8.450;2023-09-19T05:22:58;4.38;;;2.35;;
21814;SDS011;11069;48.988;8.450;2023-09-19T05:25:31;4.05;;;2.30;;
21814;SDS011;11069;48.988;8.450;2023-09-19T05:27:57;4.53;;;2.13;;
21814;SDS011;11069;48.988;8.450;2023-09-19T05:30:27;3.65;;;2.50;;
21814;SDS011;11069;48.988;8.450;2023-09-19T05:32:54;5.55;;;2.58;;
21814;SDS011;11069;48.988;8.450;2023-09-19T05:35:24;4.72;;;2.22;;
21814;SDS011;11069;48.988;8.450;2023-09-19T05:38:08;2.70;;;2.22;;
21814;SDS011;11069;48.988;8.450;2023-09-19T05:40:34;2.58;;;2.20;;
21814;SDS011;11069;48.988;8.450;2023-09-19T05:43:00;6.00;;;2.65;;
21814;SDS011;11069;48.988;8.450;2023-09-19T05:45:28;4.03;;;2.20;;
21814;SDS011;11069;48.988;8.450;2023-09-19T05:47:54;3.30;;;2.25;;
21814;SDS011;11069;48.988;8.450;2023-09-19T05:50:29;3.83;;;2.53;;
21814;SDS011;11069;48.988;8.450;2023-09-19T05:52:55;3.25;;;2.55;;
21814;SDS011;11069;48.988;8.450;2023-09-19T05:55:23;3.35;;;2.30;;
21814;SDS011;11069;48.988;8.450;2023-09-19T05:57:52;3.20;;;2.42;;
21814;SDS011;11069;48.988;8.450;2023-09-19T06:00:21;5.13;;;2.30;;
21814;SDS011;11069;48.988;8.450;2023-09-19T06:02:51;3.33;;;2.60;;
21814;SDS011;11069;48.988;8.450;2023-09-19T06:05:17;4.60;;;2.30;;
21814;SDS011;11069;48.988;8.450;2023-09-19T06:07:43;5.75;;;2.50;;
21814;SDS011;11069;48.988;8.450;2023-09-19T06:10:09;4.00;;;2.28;;
21814;SDS011;11069;48.988;8.450;2023-09-19T06:12:41;2.55;;;2.22;;
21814;SDS011;11069;48.988;8.450;2023-09-19T06:15:10;5.75;;;2.50;;
21814;SDS011;11069;48.988;8.450;2023-09-19T06:17:50;5.10;;;2.95;;
21814;SDS011;11069;48.988;8.450;2023-09-19T06:20:24;3.38;;;2.60;;
21814;SDS011;11069;48.988;8.450;2023-09-19T06:22:52;7.10;;;2.55;;
21814;SDS011;11069;48.988;8.450;2023-09-19T06:25:18;4.10;;;2.60;;
21814;SDS011;11069;48.988;8.450;2023-09-19T06:27:53;4.53;;;2.33;;
21814;SDS011;11069;48.988;8.450;2023-09-19T06:30:21;5.55;;;2.60;;
21814;SDS011;11069;48.988;8.450;2023-09-19T06:32:48;3.65;;;2.47;;
21814;SDS011;11069;48.988;8.450;2023-09-19T06:35:15;5.03;;;2.33;;
21814;SDS011;11069;48.988;8.450;2023-09-19T06:37:41;3.65;;;2.38;;
21814;SDS011;11069;48.988;8.450;2023-09-19T06:40:08;3.42;;;2.40;;
21814;SDS011;11069;48.988;8.450;2023-09-19T06:42:39;2.72;;;2.38;;
21814;SDS011;11069;48.988;8.450;2023-09-19T06:45:10;4.47;;;2.22;;
21814;SDS011;11069;48.988;8.450;2023-09-19T06:47:38;3.72;;;2.38;;
21814;SDS011;11069;48.988;8.450;2023-09-19T06:50:04;3.30;;;2.30;;
21814;SDS011;11069;48.988;8.450;2023-09-19T06:52:31;3.38;;;2.50;;
21814;SDS011;11069;48.988;8.450;2023-09-19T06:54:58;5.45;;;2.60;;
21814;SDS011;11069;48.988;8.450;2023-09-19T06:57:24;4.63;;;2.25;;
21814;SDS011;11069;48.988;8.450;2023-09-19T06:59:49;4.00;;;2.17;;
21814;SDS011;11069;48.988;8.450;2023-09-19T07:02:15;4.50;;;2.38;;
21814;SDS011;11069;48.988;8.450;2023-09-19T07:04:41;3.22;;;2.00;;
21814;SDS011;11069;48.988;8.450;2023-09-19T07:07:06;7.07;;;2.78;;
21814;SDS011;11069;48.988;8.450;2023-09-19T07:09:34;2.50;;;2.10;;
21814;SDS011;11069;48.988;8.450;2023-09-19T07:11:59;4.47;;;2.15;;
21814;SDS011;11069;48.988;8.450;2023-09-19T07:14:25;3.90;;;2.38;;
21814;SDS011;11069;48.988;8.450;2023-09-19T07:16:52;6.95;;;2.70;;
21814;SDS011;11069;48.988;8.450;2023-09-19T07:19:17;4.30;;;2.15;;
21814;SDS011;11069;48.988;8.450;2023-09-19T07:21:43;5.13;;;2.30;;
21814;SDS011;11069;48.988;8.450;2023-09-19T07:24:08;4.43;;;2.60;;
21814;SDS011;11069;48.988;8.450;2023-09-19T07:26:34;6.70;;;2.28;;
21814;SDS011;11069;48.988;8.450;2023-09-19T07:29:00;7.00;;;2.90;;
21814;SDS011;11069;48.988;8.450;2023-09-19T07:31:28;5.25;;;2.67;;
21814;SDS011;11069;48.988;8.450;2023-09-19T07:33:54;5.53;;;2.20;;
21814;SDS011;11069;48.988;8.450;2023-09-19T07:36:20;4.35;;;2.40;;
21814;SDS011;11069;48.988;8.450;2023-09-19T07:38:45;4.85;;;2.28;;
21814;SDS011;11069;48.988;8.450;2023-09-19T07:41:13;4.50;;;2.13;;
21814;SDS011;11069;48.988;8.450;2023-09-19T07:43:38;6.57;;;2.42;;
21814;SDS011;11069;48.988;8.450;2023-09-19T07:46:08;3.53;;;2.30;;
21814;SDS011;11069;48.988;8.450;2023-09-19T07:48:37;2.90;;;2.00;;
21814;SDS011;11069;48.988;8.450;2023-09-19T07:51:04;3.45;;;2.03;;
21814;SDS011;11069;48.988;8.450;2023-09-19T07:53:31;11.85;;;2.83;;
21814;SDS011;11069;48.988;8.450;2023-09-19T07:56:05;5.38;;;1.90;;
21814;SDS011;11069;48.988;8.450;2023-09-19T07:58:32;2.88;;;1.83;;
21814;SDS011;11069;48.988;8.450;2023-09-19T08:01:02;5.05;;;1.98;;
21814;SDS011;11069;48.988;8.450;2023-09-19T08:03:29;3.95;;;1.95;;
21814;SDS011;11069;48.988;8.450;2023-09-19T08:05:56;2.45;;;1.50;;
21814;SDS011;11069;48.988;8.450;2023-09-19T08:08:28;3.35;;;1.80;;
21814;SDS011;11069;48.988;8.450;2023-09-19T08:10:54;3.28;;;1.40;;
21814;SDS011;11069;48.988;8.450;2023-09-19T08:13:21;2.20;;;1.63;;
21814;SDS011;11069;48.988;8.450;2023-09-19T08:15:48;3.53;;;1.60;;
21814;SDS011;11069;48.988;8.450;2023-09-19T08:18:14;2.20;;;1.40;;
21814;SDS011;11069;48.988;8.450;2023-09-19T08:20:41;3.60;;;1.67;;
21814;SDS011;11069;48.988;8.450;2023-09-19T08:23:11;1.48;;;1.38;;
21814;SDS011;11069;48.988;8.450;2023-09-19T08:25:36;2.30;;;1.23;;
21814;SDS011;11069;48.988;8.450;2023-09-19T08:28:04;2.28;;;1.27;;
21814;SDS011;11069;48.988;8.450;2023-09-19T08:30:33;1.75;;;1.30;;
21814;SDS011;11069;48.988;8.450;2023-09-19T08:33:00;1.75;;;1.27;;
21814;SDS011;11069;48.988;8.450;2023-09-19T08:35:26;2.05;;;1.27;;
21814;SDS011;11069;48.988;8.450;2023-09-19T08:37:52;2.70;;;1.60;;
21814;SDS011;11069;48.988;8.450;2023-09-19T08:40:18;3.95;;;1.63;;
21814;SDS011;11069;48.988;8.450;2023-09-19T08:42:48;4.72;;;1.70;;
21814;SDS011;11069;48.988;8.450;2023-09-19T08:45:21;2.38;;;1.58;;
21814;SDS011;11069;48.988;8.450;2023-09-19T08:53:42;3.78;;;1.48;;
21814;SDS011;11069;48.988;8.450;2023-09-19T08:56:17;3.65;;;1.58;;
21814;SDS011;11069;48.988;8.450;2023-09-19T08:58:48;4.35;;;1.52;;
21814;SDS011;11069;48.988;8.450;2023-09-19T09:01:20;1.98;;;1.00;;
21814;SDS011;11069;48.988;8.450;2023-09-19T09:03:57;3.80;;;1.40;;
21814;SDS011;11069;48.988;8.450;2023-09-19T09:06:24;1.75;;;1.50;;
21814;SDS011;11069;48.988;8.450;2023-09-19T09:08:51;1.42;;;1.08;;
21814;SDS011;11069;48.988;8.450;2023-09-19T09:11:17;1.98;;;1.20;;
21814;SDS011;11069;48.988;8.450;2023-09-19T09:13:44;2.67;;;0.95;;
21814;SDS011;11069;48.988;8.450;2023-09-19T09:16:11;2.78;;;1.35;;
21814;SDS011;11069;48.988;8.450;2023-09-19T09:18:37;3.00;;;1.00;;
21814;SDS011;11069;48.988;8.450;2023-09-19T09:21:03;2.55;;;0.98;;
21814;SDS011;11069;48.988;8.450;2023-09-19T09:23:29;2.60;;;1.25;;
21814;SDS011;11069;48.988;8.450;2023-09-19T09:25:59;4.05;;;1.23;;
21814;SDS011;11069;48.988;8.450;2023-09-19T09:28:28;3.85;;;1.38;;
21814;SDS011;11069;48.988;8.450;2023-09-19T09:30:59;1.80;;;0.90;;
21814;SDS011;11069;48.988;8.450;2023-09-19T09:33:32;2.90;;;1.50;;
21814;SDS011;11069;48.988;8.450;2023-09-19T09:35:59;1.15;;;1.05;;
21814;SDS011;11069;48.988;8.450;2023-09-19T09:38:44;4.55;;;1.08;;
21814;SDS011;11069;48.988;8.450;2023-09-19T09:41:11;3.97;;;1.10;;
21814;SDS011;11069;48.988;8.450;2023-09-19T09:43:41;2.13;;;1.02;;
21814;SDS011;11069;48.988;8.450;2023-09-19T09:46:17;2.83;;;0.98;;
21814;SDS011;11069;48.988;8.450;2023-09-19T09:51:37;1.93;;;1.07;;
21814;SDS011;11069;48.988;8.450;2023-09-19T09:54:13;1.75;;;1.10;;
21814;SDS011;11069;48.988;8.450;2023-09-19T09:56:56;2.65;;;1.25;;
21814;SDS011;11069;48.988;8.450;2023-09-19T10:02:30;2.13;;;1.30;;
21814;SDS011;11069;48.988;8.450;2023-09-19T10:05:17;2.80;;;1.20;;
21814;SDS011;11069;48.988;8.450;2023-09-19T10:08:09;2.30;;;1.10;;
21814;SDS011;11069;48.988;8.450;2023-09-19T10:10:47;2.83;;;1.35;;
21814;SDS011;11069;48.988;8.450;2023-09-19T10:13:29;3.83;;;1.45;;
21814;SDS011;11069;48.988;8.450;2023-09-19T10:15:59;3.30;;;1.40;;
21814;SDS011;11069;48.988;8.450;2023-09-19T10:18:35;7.70;;;1.42;;
21814;SDS011;11069;48.988;8.450;2023-09-19T10:21:04;3.38;;;1.60;;
21814;SDS011;11069;48.988;8.450;2023-09-19T10:23:31;2.95;;;1.10;;
21814;SDS011;11069;48.988;8.450;2023-09-19T10:25:59;3.05;;;1.10;;
21814;SDS011;11069;48.988;8.450;2023-09-19T10:28:27;3.08;;;1.00;;
21814;SDS011;11069;48.988;8.450;2023-09-19T10:30:55;3.35;;;1.20;;
21814;SDS011;11069;48.988;8.450;2023-09-19T10:33:23;2.25;;;1.10;;
21814;SDS011;11069;48.988;8.450;2023-09-19T10:35:54;3.85;;;1.25;;
21814;SDS011;11069;48.988;8.450;2023-09-19T10:38:25;2.97;;;1.30;;
21814;SDS011;11069;48.988;8.450;2023-09-19T10:40:53;2.13;;;1.30;;
21814;SDS011;11069;48.988;8.450;2023-09-19T10:43:31;2.25;;;1.08;;
21814;SDS011;11069;48.988;8.450;2023-09-19T10:46:07;2.78;;;1.23;;
21814;SDS011;11069;48.988;8.450;2023-09-19T10:48:35;3.15;;;1.50;;
21814;SDS011;11069;48.988;8.450;2023-09-19T10:54:32;2.60;;;1.25;;
21814;SDS011;11069;48.988;8.450;2023-09-19T10:56:38;3.28;;;1.58;;
21814;SDS011;11069;48.988;8.450;2023-09-19T10:59:10;2.83;;;1.58;;
21814;SDS011;11069;48.988;8.450;2023-09-19T11:15:00;2.83;;;1.10;;
21814;SDS011;11069;48.988;8.450;2023-09-19T11:17:37;3.97;;;1.40;;
21814;SDS011;11069;48.988;8.450;2023-09-19T11:30:37;3.03;;;1.17;;
21814;SDS011;11069;48.988;8.450;2023-09-19T11:43:47;1.85;;;1.10;;
21814;SDS011;11069;48.988;8.450;2023-09-19T11:46:15;2.90;;;1.20;;
21814;SDS011;11069;48.988;8.450;2023-09-19T11:48:47;4.20;;;1.50;;
21814;SDS011;11069;48.988;8.450;2023-09-19T11:51:15;3.38;;;1.50;;
21814;SDS011;11069;48.988;8.450;2023-09-19T11:53:52;2.45;;;0.95;;
21814;SDS011;11069;48.988;8.450;2023-09-19T11:58:51;1.65;;;1.10;;
21814;SDS011;11069;48.988;8.450;2023-09-19T12:01:29;2.47;;;1.27;;
21814;SDS011;11069;48.988;8.450;2023-09-19T12:03:58;3.03;;;1.20;;
21814;SDS011;11069;48.988;8.450;2023-09-19T12:06:25;3.30;;;1.27;;
21814;SDS011;11069;48.988;8.450;2023-09-19T12:08:52;2.05;;;1.10;;
21814;SDS011;11069;48.988;8.450;2023-09-19T12:11:26;3.78;;;1.17;;
21814;SDS011;11069;48.988;8.450;2023-09-19T12:14:02;2.55;;;1.10;;
21814;SDS011;11069;48.988;8.450;2023-09-19T12:16:32;4.30;;;1.90;;
21814;SDS011;11069;48.988;8.450;2023-09-19T12:19:17;3.20;;;1.20;;
21814;SDS011;11069;48.988;8.450;2023-09-19T12:21:53;3.33;;;1.20;;
21814;SDS011;11069;48.988;8.450;2023-09-19T12:24:34;3.10;;;1.27;;
21814;SDS011;11069;48.988;8.450;2023-09-19T12:27:04;1.48;;;1.10;;
21814;SDS011;11069;48.988;8.450;2023-09-19T12:29:32;2.17;;;1.30;;
21814;SDS011;11069;48.988;8.450;2023-09-19T12:32:15;1.70;;;1.30;;
21814;SDS011;11069;48.988;8.450;2023-09-19T12:34:52;4.45;;;1.23;;
21814;SDS011;11069;48.988;8.450;2023-09-19T12:37:20;1.88;;;1.02;;
21814;SDS011;11069;48.988;8.450;2023-09-19T12:39:48;2.72;;;1.30;;
21814;SDS011;11069;48.988;8.450;2023-09-19T12:42:16;3.80;;;1.17;;
21814;SDS011;11069;48.988;8.450;2023-09-19T12:44:50;3.20;;;1.30;;
21814;SDS011;11069;48.988;8.450;2023-09-19T12:47:21;2.47;;;1.10;;
21814;SDS011;11069;48.988;8.450;2023-09-19T12:52:46;1.20;;;1.00;;
21814;SDS011;11069;48.988;8.450;2023-09-19T12:55:20;1.75;;;1.17;;
21814;SDS011;11069;48.988;8.450;2023-09-19T12:57:58;2.63;;;1.20;;
21814;SDS011;11069;48.988;8.450;2023-09-19T13:03:17;1.75;;;1.13;;
21814;SDS011;11069;48.988;8.450;2023-09-19T13:11:14;2.63;;;1.23;;
21814;SDS011;11069;48.988;8.450;2023-09-19T13:13:46;1.67;;;1.23;;
21814;SDS011;11069;48.988;8.450;2023-09-19T13:16:15;3.47;;;0.95;;
21814;SDS011;11069;48.988;8.450;2023-09-19T13:18:51;2.85;;;1.15;;
21814;SDS011;11069;48.988;8.450;2023-09-19T13:21:54;3.53;;;1.20;;
21814;SDS011;11069;48.988;8.450;2023-09-19T13:24:22;1.75;;;1.13;;
21814;SDS011;11069;48.988;8.450;2023-09-19T13:26:52;1.52;;;1.08;;
21814;SDS011;11069;48.988;8.450;2023-09-19T13:29:18;2.75;;;1.45;;
21814;SDS011;11069;48.988;8.450;2023-09-19T13:31:48;1.08;;;0.93;;
21814;SDS011;11069;48.988;8.450;2023-09-19T13:34:14;1.13;;;0.90;;
21814;SDS011;11069;48.988;8.450;2023-09-19T13:36:43;2.17;;;1.30;;
21814;SDS011;11069;48.988;8.450;2023-09-19T13:39:09;1.67;;;1.10;;
21814;SDS011;11069;48.988;8.450;2023-09-19T13:41:38;3.00;;;1.20;;
21814;SDS011;11069;48.988;8.450;2023-09-19T13:44:10;2.58;;;0.98;;
21814;SDS011;11069;48.988;8.450;2023-09-19T13:46:36;4.35;;;1.10;;
21814;SDS011;11069;48.988;8.450;2023-09-19T13:49:02;6.32;;;1.30;;
21814;SDS011;11069;48.988;8.450;2023-09-19T13:51:31;1.10;;;1.00;;
21814;SDS011;11069;48.988;8.450;2023-09-19T13:53:57;1.95;;;0.90;;
21814;SDS011;11069;48.988;8.450;2023-09-19T13:56:24;1.67;;;0.90;;
21814;SDS011;11069;48.988;8.450;2023-09-19T13:58:52;2.13;;;1.02;;
21814;SDS011;11069;48.988;8.450;2023-09-19T14:01:19;2.92;;;0.80;;
21814;SDS011;11069;48.988;8.450;2023-09-19T14:03:45;1.27;;;1.13;;
21814;SDS011;11069;48.988;8.450;2023-09-19T14:06:16;3.45;;;1.50;;
21814;SDS011;11069;48.988;8.450;2023-09-19T14:08:42;1.10;;;0.80;;
21814;SDS011;11069;48.988;8.450;2023-09-19T14:11:12;2.10;;;1.00;;
21814;SDS011;11069;48.988;8.450;2023-09-19T14:13:41;1.52;;;0.88;;
21814;SDS011;11069;48.988;8.450;2023-09-19T14:16:12;1.27;;;0.80;;
21814;SDS011;11069;48.988;8.450;2023-09-19T14:18:38;1.88;;;0.80;;
21814;SDS011;11069;48.988;8.450;2023-09-19T14:21:04;2.78;;;0.90;;
21814;SDS011;11069;48.988;8.450;2023-09-19T14:23:39;1.23;;;0.80;;
21814;SDS011;11069;48.988;8.450;2023-09-19T14:26:06;1.48;;;0.90;;
21814;SDS011;11069;48.988;8.450;2023-09-19T14:28:34;1.08;;;0.70;;
21814;SDS011;11069;48.988;8.450;2023-09-19T14:31:07;2.38;;;0.80;;
21814;SDS011;11069;48.988;8.450;2023-09-19T14:33:33;2.28;;;0.95;;
21814;SDS011;11069;48.988;8.450;2023-09-19T14:36:06;0.93;;;0.80;;
21814;SDS011;11069;48.988;8.450;2023-09-19T14:38:34;2.03;;;0.90;;
21814;SDS011;11069;48.988;8.450;2023-09-19T14:41:04;3.50;;;0.98;;
21814;SDS011;11069;48.988;8.450;2023-09-19T14:43:31;3.45;;;0.80;;
21814;SDS011;11069;48.988;8.450;2023-09-19T14:45:57;3.30;;;1.27;;
21814;SDS011;11069;48.988;8.450;2023-09-19T14:48:29;1.92;;;0.70;;
21814;SDS011;11069;48.988;8.450;2023-09-19T14:50:55;1.58;;;0.80;;
21814;SDS011;11069;48.988;8.450;2023-09-19T14:53:36;1.33;;;0.82;;
21814;SDS011;11069;48.988;8.450;2023-09-19T14:56:03;1.70;;;0.85;;
21814;SDS011;11069;48.988;8.450;2023-09-19T14:58:30;0.73;;;0.65;;
21814;SDS011;11069;48.988;8.450;2023-09-19T15:03:28;1.20;;;1.00;;
21814;SDS011;11069;48.988;8.450;2023-09-19T15:05:58;3.97;;;0.80;;
21814;SDS011;11069;48.988;8.450;2023-09-19T15:08:29;0.70;;;0.70;;
21814;SDS011;11069;48.988;8.450;2023-09-19T15:11:00;1.50;;;0.90;;
21814;SDS011;11069;48.988;8.450;2023-09-19T15:13:30;0.98;;;0.60;;
21814;SDS011;11069;48.988;8.450;2023-09-19T15:16:03;1.48;;;0.90;;
21814;SDS011;11069;48.988;8.450;2023-09-19T15:18:45;1.27;;;0.80;;
21814;SDS011;11069;48.988;8.450;2023-09-19T15:21:14;1.23;;;0.82;;
21814;SDS011;11069;48.988;8.450;2023-09-19T15:23:41;2.67;;;0.95;;
21814;SDS011;11069;48.988;8.450;2023-09-19T15:26:08;1.33;;;0.80;;
21814;SDS011;11069;48.988;8.450;2023-09-19T15:28:36;5.13;;;1.10;;
21814;SDS011;11069;48.988;8.450;2023-09-19T15:31:06;1.75;;;1.05;;
21814;SDS011;11069;48.988;8.450;2023-09-19T15:33:33;2.75;;;0.98;;
21814;SDS011;11069;48.988;8.450;2023-09-19T15:36:00;1.90;;;1.00;;
21814;SDS011;11069;48.988;8.450;2023-09-19T15:38:27;1.50;;;0.80;;
21814;SDS011;11069;48.988;8.450;2023-09-19T15:40:53;2.28;;;1.10;;
21814;SDS011;11069;48.988;8.450;2023-09-19T15:43:19;1.20;;;0.90;;
21814;SDS011;11069;48.988;8.450;2023-09-19T15:45:46;1.65;;;0.65;;
21814;SDS011;11069;48.988;8.450;2023-09-19T15:48:13;1.67;;;0.90;;
21814;SDS011;11069;48.988;8.450;2023-09-19T15:50:39;1.08;;;0.80;;
21814;SDS011;11069;48.988;8.450;2023-09-19T15:53:07;2.22;;;1.10;;
21814;SDS011;11069;48.988;8.450;2023-09-19T15:55:38;2.53;;;0.82;;
21814;SDS011;11069;48.988;8.450;2023-09-19T15:58:05;1.50;;;1.08;;
21814;SDS011;11069;48.988;8.450;2023-09-19T16:00:33;1.08;;;0.80;;
21814;SDS011;11069;48.988;8.450;2023-09-19T16:03:00;1.40;;;0.90;;
21814;SDS011;11069;48.988;8.450;2023-09-19T16:05:26;2.38;;;1.00;;
21814;SDS011;11069;48.988;8.450;2023-09-19T16:07:53;1.17;;;0.93;;
21814;SDS011;11069;48.988;8.450;2023-09-19T16:10:19;2.42;;;1.08;;
21814;SDS011;11069;48.988;8.450;2023-09-19T16:12:54;1.70;;;0.90;;